Latest Weather Observations for Badgerys Creek

IDN60801

Issued at 10:03 pm EST Saturday 25 June 2016 (issued every 30 minutes, with the page automatically refreshed every 10 minutes)

About weather observations | Map of weather stations | Latest weather observations for NSW | Other Formats
Station Details ID: 067108 Name: BADGERYS CREEK AWS Lat: -33.90 Lon: 150.73 Height: 81.2 m
Data from the previous 72 hours. | See also: Recent months at Badgerys Creek
Date/Time
EST
Temp
°C
App
Temp
°C
Dew
Point
°C
Rel
Hum
%
Delta-T
°C
Wind Press
QNH
hPa
Press
MSL
hPa
Rain since
9am
mm
Dir  Spd
km/h
Gust
km/h
Spd
kts
Gust
kts
25/10:00pm 4.4 2.5 0.7 77 1.4 CALM 0 0 0 0 1020.8 1020.8 0.0
25/09:30pm 3.8 0.8 0.8 81 1.1 SSW 6 6 3 3 1020.8 1020.8 0.0
25/09:00pm 3.2 0.2 0.8 84 0.9 SSW 6 9 3 5 1020.7 1020.7 0.0
25/08:30pm 4.8 2.2 0.9 76 1.5 SSW 4 6 2 3 1020.7 1020.7 0.0
25/08:00pm 5.8 3.2 0.8 70 2.0 WSW 4 6 2 3 1020.6 1020.6 0.0
25/07:30pm 6.6 3.4 0.5 65 2.4 W 7 9 4 5 1020.6 1020.6 0.0
25/07:00pm 6.5 3.5 0.6 66 2.3 WSW 6 7 3 4 1020.3 1020.3 0.0
25/06:30pm 7.3 3.3 0.7 63 2.6 W 11 13 6 7 1020.1 1020.1 0.0
25/06:00pm 8.1 3.8 0.8 60 2.9 WSW 13 17 7 9 1019.8 1019.8 0.0
25/05:30pm 8.7 4.4 0.7 57 3.2 WSW 13 17 7 9 1019.6 1019.6 0.0
25/05:00pm 10.0 5.6 0.3 51 3.9 WSW 13 19 7 10 1019.2 1019.2 0.0
25/04:30pm 11.5 7.1 0.3 46 4.6 WSW 13 17 7 9 1019.0 1019.0 0.0
25/04:00pm 12.7 7.4 -0.5 40 5.4 SW 17 20 9 11 1018.8 1018.8 0.0
25/03:30pm 13.2 7.4 -1.2 37 5.8 SW 19 26 10 14 1018.7 1018.7 0.0
25/03:00pm 13.3 7.3 -1.4 36 5.9 WSW 20 28 11 15 1018.4 1018.4 0.0
25/02:30pm 13.8 8.1 -0.6 37 6.0 SW 19 32 10 17 1018.3 1018.3 0.0
25/02:00pm 13.3 6.9 -1.4 36 5.9 SW 22 28 12 15 1018.1 1018.1 0.0
25/01:30pm 13.3 7.3 -1.8 35 6.0 WSW 20 33 11 18 1018.0 1018.0 0.0
25/01:00pm 13.5 6.8 -0.9 37 5.9 SW 24 35 13 19 1018.1 1018.1 0.0
25/12:30pm 12.9 6.2 -1.1 38 5.7 SW 24 35 13 19 1018.3 1018.3 0.0
25/12:00pm 12.6 5.9 -1.3 38 5.6 SW 24 35 13 19 1018.5 1018.5 0.0
25/11:30am 12.2 4.7 -1.7 38 5.5 WSW 28 41 15 22 1018.5 1018.5 0.0
25/11:00am 12.0 4.9 -1.5 39 5.4 SW 26 37 14 20 1018.9 1018.9 0.0
25/10:30am 11.5 5.2 -1.3 41 5.1 SW 22 33 12 18 1019.1 1019.1 0.0
25/10:00am 10.6 3.9 -0.8 45 4.5 WSW 24 33 13 18 1019.0 1019.0 0.0
25/09:30am 9.9 3.6 -0.9 47 4.3 WSW 22 33 12 18 1018.8 1018.8 0.0
25/09:00am 8.9 3.2 -0.7 51 3.8 WSW 19 26 10 14 1018.7 1018.7 0.0
25/08:30am 7.9 2.3 -0.3 56 3.2 WSW 19 26 10 14 1018.1 1018.1 0.0
25/08:00am 6.0 1.6 0.3 67 2.2 SW 13 19 7 10 1017.8 1017.8 0.0
25/07:30am 3.6 -0.2 -0.6 74 1.6 SW 9 13 5 7 1017.7 1017.7 0.0
25/07:00am 4.9 2.0 -0.9 66 2.2 WSW 4 6 2 3 1017.2 1017.3 0.0
25/06:30am 4.3 1.4 -1.3 67 2.1 WSW 4 7 2 4 1016.9 1017.0 0.0
25/06:00am 5.3 2.4 -0.9 64 2.3 W 4 9 2 5 1016.4 1016.5 0.0
25/05:30am 5.8 2.9 -1.1 61 2.6 WNW 4 6 2 3 1016.2 1016.3 0.0
25/05:00am 6.0 2.1 -1.2 60 2.7 WSW 9 13 5 7 1015.9 1016.0 0.0
25/04:30am 6.5 1.2 -0.7 60 2.7 WSW 17 22 9 12 1015.0 1015.1 0.0
25/04:00am 7.1 0.9 -0.4 59 2.9 WSW 22 30 12 16 1014.6 1014.7 0.0
25/03:30am 7.0 1.2 -0.2 60 2.8 SW 20 28 11 15 1014.4 1014.5 0.0
25/03:00am 7.6 0.2 -0.4 57 3.1 SW 28 41 15 22 1014.0 1014.1 0.0
25/02:30am 7.4 1.6 -0.3 58 3.0 SW 20 28 11 15 1013.8 1013.9 0.0
25/02:00am 8.1 0.7 -0.6 54 3.4 WSW 28 39 15 21 1013.5 1013.6 0.0
25/01:30am 8.0 1.0 -0.2 56 3.2 WSW 26 39 14 21 1013.0 1013.1 0.0
25/01:00am 7.7 1.9 0.0 58 3.0 SW 20 28 11 15 1012.7 1012.8 0.0
25/12:30am 8.2 1.3 0.0 56 3.2 WSW 26 35 14 19 1012.4 1012.5 0.0
25/12:00am 8.4 2.2 -0.1 55 3.4 WSW 22 35 12 19 1012.4 1012.5 0.0
 
Date/Time
EST
Temp
°C
App
Temp
°C
Dew
Point
°C
Rel
Hum
%
Delta-T
°C
Wind Press
QNH
hPa
Press
MSL
hPa
Rain since
9am
mm
Dir  Spd
km/h
Gust
km/h
Spd
kts
Gust
kts
24/11:30pm 8.2 2.6 0.2 57 3.2 WSW 19 30 10 16 1012.2 1012.3 0.0
24/11:11pm 8.9 0.9 0.4 55 3.4 WSW 32 52 17 28 1011.9 1012.0 0.0
24/11:00pm 9.1 0.5 0.3 54 3.5 WSW 35 52 19 28 1011.9 1012.0 0.0
24/10:57pm 9.3 0.7 0.2 53 3.7 WSW 35 52 19 28 1011.8 1011.9 0.0
24/10:30pm 9.3 3.2 0.5 54 3.6 SW 22 33 12 18 1011.5 1011.5 0.0
24/10:00pm 8.0 3.6 0.3 58 3.1 SW 13 17 7 9 1011.4 1011.4 0.0
24/09:30pm 7.9 4.3 0.4 59 3.0 WSW 9 13 5 7 1011.0 1011.0 0.0
24/09:00pm 8.7 4.0 0.9 58 3.2 WSW 15 26 8 14 1010.7 1010.7 0.0
24/08:30pm 8.9 4.2 1.1 58 3.2 WSW 15 24 8 13 1010.2 1010.2 0.0
24/08:00pm 9.1 2.3 0.8 56 3.4 WSW 26 37 14 20 1009.6 1009.6 0.0
24/07:30pm 9.0 1.8 1.0 57 3.3 WSW 28 37 15 20 1009.2 1009.2 0.0
24/07:00pm 8.5 2.3 1.9 63 2.8 WSW 24 33 13 18 1008.4 1008.4 0.0
24/06:30pm 9.0 2.4 2.1 62 2.9 W 26 43 14 23 1007.9 1007.9 0.0
24/06:27pm 9.1 2.5 2.0 61 3.0 W 26 43 14 23 1008.0 1008.0 0.0
24/06:00pm 9.2 4.7 1.9 60 3.1 W 15 28 8 15 1007.3 1007.3 0.0
24/05:30pm 9.2 5.8 2.1 61 3.0 SSW 9 15 5 8 1007.0 1007.0 0.0
24/05:00pm 9.1 2.9 2.4 63 2.8 WNW 24 43 13 23 1005.6 1005.6 0.0
24/04:30pm 9.1 1.3 3.1 66 2.6 WNW 33 63 18 34 1005.1 1005.1 0.0
24/04:08pm 9.9 2.4 3.4 64 2.8 WNW 32 54 17 29 1004.9 1004.9 0.0
24/04:00pm 10.3 2.6 3.6 63 3.0 W 33 50 18 27 1004.8 1004.8 0.0
24/03:30pm 11.7 3.4 1.9 51 4.2 W 35 57 19 31 1004.1 1004.2 0.0
24/03:05pm 13.1 4.6 1.1 44 5.1 W 35 56 19 30 1003.5 1003.6 0.0
24/03:00pm 12.7 3.8 0.8 44 5.0 W 37 56 20 30 1003.4 1003.5 0.0
24/02:30pm 13.4 4.6 1.4 44 5.2 W 37 61 20 33 1002.7 1002.8 0.0
24/02:00pm 14.2 4.7 1.8 43 5.5 W 41 65 22 35 1002.8 1002.9 0.0
24/01:31pm 15.1 6.9 0.5 37 6.3 W 33 54 18 29 1002.6 1002.7 0.0
24/01:30pm 15.5 7.4 1.3 38 6.2 W 33 50 18 27 1002.7 1002.8 0.0
24/01:08pm 15.4 8.3 1.2 38 6.2 W 28 48 15 26 1003.1 1003.2 0.0
24/01:00pm 15.5 9.5 1.3 38 6.3 W 22 41 12 22 1003.0 1003.1 0.0
24/12:30pm 15.4 9.0 1.2 38 6.2 WNW 24 41 13 22 1003.2 1003.3 0.0
24/12:04pm 15.6 8.3 2.4 41 5.9 WNW 30 52 16 28 1003.0 1003.1 0.0
24/12:00pm 16.0 8.8 3.1 42 5.9 WNW 30 48 16 26 1003.2 1003.3 0.0
24/11:30am 15.3 8.6 3.5 45 5.4 WNW 28 41 15 22 1003.5 1003.6 0.0
24/11:00am 14.4 8.1 3.8 49 4.9 W 26 39 14 21 1004.2 1004.3 0.0
24/10:30am 14.6 10.5 4.3 50 4.8 W 15 28 8 15 1004.5 1004.6 0.0
24/10:00am 14.0 8.2 4.3 52 4.5 WNW 24 33 13 18 1004.6 1004.7 0.0
24/09:30am 13.9 10.6 6.3 60 3.7 WNW 13 17 7 9 1004.6 1004.7 0.0
24/09:00am 13.8 7.9 5.9 59 3.8 WNW 26 41 14 22 1004.2 1004.3 0.0
24/08:30am 14.2 10.5 6.3 59 3.8 WNW 15 26 8 14 1003.6 1003.7 0.0
24/08:00am 13.0 11.3 5.7 61 3.5 NNE 4 7 2 4 1003.2 1003.3 0.0
24/07:30am 11.6 9.7 4.8 63 3.1 NNE 4 6 2 3 1002.7 1002.8 0.0
24/07:00am 11.4 8.9 4.8 64 3.0 NE 7 11 4 6 1002.5 1002.6 0.0
24/06:30am 11.2 8.7 4.7 64 3.0 E 7 9 4 5 1002.3 1002.4 0.0
24/06:00am 8.9 6.3 4.1 72 2.1 ESE 7 11 4 6 1002.1 1002.2 0.0
24/05:30am 10.6 8.9 5.8 72 2.2 E 4 7 2 4 1001.8 1001.9 0.0
24/05:00am 10.4 8.8 6.2 75 2.0 N 4 6 2 3 1001.6 1001.7 0.0
24/04:30am 12.8 9.9 6.6 66 3.0 NW 11 20 6 11 1001.8 1001.9 0.0
24/04:00am 12.0 9.8 7.9 76 2.0 N 9 20 5 11 1002.2 1002.3 0.0
24/03:30am 11.3 8.4 8.0 80 1.6 NNE 13 17 7 9 1002.2 1002.3 0.0
24/03:00am 12.0 9.0 7.7 75 2.1 NNE 13 15 7 8 1002.5 1002.6 0.0
24/02:30am 11.6 8.5 7.3 75 2.1 NNE 13 19 7 10 1002.5 1002.6 0.0
24/02:00am 12.2 9.6 7.9 75 2.1 N 11 15 6 8 1002.6 1002.7 0.0
24/01:30am 12.0 8.9 8.8 81 1.6 NNE 15 22 8 12 1002.6 1002.7 0.0
24/01:00am 12.3 9.6 9.1 81 1.6 NNE 13 24 7 13 1003.1 1003.2 0.0
24/12:30am 12.2 8.5 9.4 83 1.4 N 19 24 10 13 1003.4 1003.5 0.0
24/12:00am 11.6 7.7 8.8 83 1.4 N 19 24 10 13 1003.6 1003.7 0.0
 
Date/Time
EST
Temp
°C
App
Temp
°C
Dew
Point
°C
Rel
Hum
%
Delta-T
°C
Wind Press
QNH
hPa
Press
MSL
hPa
Rain since
9am
mm
Dir  Spd
km/h
Gust
km/h
Spd
kts
Gust
kts
23/11:30pm 11.2 8.5 8.8 85 1.2 NNE 13 15 7 8 1004.3 1004.4 0.0
23/11:00pm 10.2 8.4 8.0 86 1.1 N 7 9 4 5 1004.4 1004.5 0.0
23/10:30pm 8.9 6.4 6.7 86 1.0 N 9 11 5 6 1004.4 1004.5 0.0
23/10:00pm 10.1 7.9 7.7 85 1.2 N 9 13 5 7 1005.0 1005.0 0.0
23/09:30pm 10.2 7.9 7.3 82 1.4 NNE 9 13 5 7 1005.2 1005.2 0.0
23/09:00pm 10.0 8.0 6.9 81 1.5 N 7 9 4 5 1005.5 1005.5 0.0
23/08:30pm 10.3 8.2 6.8 79 1.7 N 7 13 4 7 1005.8 1005.8 0.0
23/08:00pm 11.0 8.6 7.1 77 1.9 NNW 9 11 5 6 1006.2 1006.2 0.0
23/07:30pm 11.5 9.1 6.8 73 2.2 N 9 11 5 6 1006.4 1006.4 0.0
23/07:00pm 11.8 8.3 7.1 73 2.3 N 15 17 8 9 1006.5 1006.5 0.0
23/06:30pm 12.9 11.0 7.6 70 2.6 N 7 11 4 6 1006.6 1006.6 0.0
23/06:00pm 12.4 10.5 6.5 67 2.8 N 6 9 3 5 1006.6 1006.6 0.0
23/05:30pm 13.1 12.2 6.2 63 3.3 CALM 0 4 0 2 1006.6 1006.6 0.0
23/05:00pm 12.9 10.1 5.1 59 3.6 NNE 9 13 5 7 1006.5 1006.5 0.0
23/04:30pm 15.6 13.4 6.1 53 4.6 N 7 9 4 5 1006.5 1006.5 0.0
23/04:00pm 15.3 13.3 6.1 54 4.5 NNW 6 6 3 3 1006.6 1006.6 0.0
23/03:30pm 15.7 13.4 5.9 52 4.7 NW 7 11 4 6 1006.9 1006.9 0.0
23/03:00pm 15.8 11.1 5.1 49 5.1 WNW 19 26 10 14 1007.1 1007.1 0.0
23/02:30pm 17.5 13.9 5.1 44 6.0 WNW 13 19 7 10 1007.4 1007.4 0.0
23/02:00pm 17.6 12.7 5.2 44 6.0 NW 20 28 11 15 1007.7 1007.7 0.0
23/01:30pm 17.6 12.3 4.9 43 6.1 WNW 22 32 12 17 1008.0 1008.0 0.0
23/01:00pm 17.6 13.7 5.5 45 5.9 NNW 15 20 8 11 1008.6 1008.6 0.0
23/12:30pm 16.3 13.4 6.4 52 4.9 NNE 11 15 6 8 1009.5 1009.5 0.0
23/12:00pm 15.7 12.4 6.4 54 4.5 N 13 17 7 9 1010.3 1010.3 0.0
23/11:30am 14.0 11.4 5.9 58 3.9 N 9 13 5 7 1011.0 1011.0 0.0
23/11:00am 13.1 10.5 6.0 62 3.4 NNE 9 13 5 7 1011.7 1011.7 0.0
23/10:30am 12.4 9.7 5.6 63 3.2 N 9 13 5 7 1011.9 1012.0 0.0
23/10:00am 12.2 9.7 6.5 68 2.7 N 9 13 5 7 1012.3 1012.4 0.0
23/09:30am 10.7 7.7 6.1 73 2.1 NNE 11 15 6 8 1012.7 1012.8 0.0
23/09:00am 9.5 7.2 5.9 78 1.7 NNE 7 11 4 6 1012.3 1012.4 0.0
23/08:30am 9.4 5.8 5.2 75 1.9 N 13 15 7 8 1012.2 1012.3 0.0
23/08:00am 9.9 7.3 5.9 76 1.8 NNW 9 13 5 7 1012.4 1012.5 0.0
23/07:30am 8.1 5.3 5.0 81 1.4 N 9 13 5 7 1012.4 1012.5 0.0
23/07:00am 6.0 3.9 3.7 85 1.0 NNE 4 11 2 6 1012.3 1012.4 0.0
23/06:30am 6.6 3.9 3.9 83 1.2 N 7 9 4 5 1011.9 1012.0 0.0
23/06:00am 7.1 3.7 4.1 81 1.3 N 11 15 6 8 1011.8 1011.9 0.0
23/05:30am 6.6 3.0 3.2 79 1.4 N 11 13 6 7 1011.5 1011.5 0.0
23/05:00am 7.9 4.7 3.2 72 2.0 N 9 13 5 7 1011.2 1011.2 0.0
23/04:30am 9.1 6.3 3.3 67 2.5 NNE 7 9 4 5 1011.2 1011.2 0.0
23/04:00am 9.2 5.7 3.6 68 2.4 W 11 15 6 8 1011.3 1011.3 0.0
23/03:30am 9.2 6.3 2.8 64 2.7 NW 7 11 4 6 1011.6 1011.6 0.0
23/03:00am 10.8 9.3 3.1 59 3.4 CALM 0 0 0 0 1011.5 1011.5 0.0
23/02:30am 10.3 8.7 2.7 59 3.3 CALM 0 2 0 1 1011.6 1011.6 0.0
23/02:00am 10.1 7.8 2.7 60 3.2 NNW 4 6 2 3 1011.9 1012.0 0.0
23/01:30am 11.5 8.3 3.0 56 3.7 W 9 17 5 9 1011.8 1011.9 0.0
23/01:00am 11.0 7.4 2.8 57 3.6 W 11 22 6 12 1011.6 1011.6 0.0
23/12:30am 11.7 8.1 3.2 56 3.8 W 11 17 6 9 1012.1 1012.2 0.0
23/12:00am 11.9 9.0 2.6 53 4.1 WNW 7 17 4 9 1011.9 1012.0 0.0
 
Date/Time
EST
Temp
°C
App
Temp
°C
Dew
Point
°C
Rel
Hum
%
Delta-T
°C
Wind Press
QNH
hPa
Press
MSL
hPa
Rain since
9am
mm
Dir  Spd
km/h
Gust
km/h
Spd
kts
Gust
kts
22/11:30pm 11.6 8.0 2.9 55 3.8 W 11 24 6 13 1012.1 1012.2 0.0
22/11:00pm 11.4 7.8 3.2 57 3.6 W 11 15 6 8 1012.3 1012.4 0.0
22/10:30pm 11.6 8.3 2.6 54 3.9 WNW 9 13 5 7 1012.3 1012.4 0.0

Other Formats:

Comma delimited format used in spreadsheet applications
http://www.bom.gov.au/fwo/IDN60801/IDN60801.94752.axf

JavaScript Object Notation format (JSON) in row-major order
http://www.bom.gov.au/fwo/IDN60801/IDN60801.94752.json